Aviation Digital Data Service (ADDS)

Output produced by METARs form (1826 UTC 22 November 2017)
found at http://www.aviationweather.gov/adds/metars/
 
WSAP 221800Z 01002KT 9999 FEW018 BKN300 28/25 Q1007
TAF WSAP 221700Z 2218/2400 35007KT 9999 FEW018CB SCT020 
     TEMPO 2305/2311 2500 TSRA FEW012CB BKN015
       
WSSL 221800Z 32003KT 9999 FEW020 BKN300 27/24 Q1007 RMK 1430Z Q1008
TAF WSSL 221700Z 2218/2400 35007KT 9999 FEW018CB SCT020 
     TEMPO 2305/2311 2500 TSRA FEW012CB BKN015
       
WSSS 221800Z VRB02KT 9999 FEW020 BKN300 27/25 Q1007 NOSIG
TAF WSSS 221700Z 2218/2400 35007KT 9999 FEW018CB SCT020 
     TEMPO 2305/2311 2500 TSRA FEW012CB BKN015